Time;durP1;ratioP1;P1;durP2;ratioP2;P2;SDS_P1;SDS_P2;PMS_P1;PMS_P2;Temp;Humidity;BMP_temperature;BMP_pressure;BME280_temperature;BME280_humidity;BME280_pressure;Samples;Min_cycle;Max_cycle;Signal;HPM_P1;HPM_P2
2022/05/28 00:02:02;;;;;;;5.07;2.80;;;;;;;15.20;70.85;99092.13;5097911;28;20193;-52
2022/05/28 00:04:30;;;;;;;5.10;2.70;;;;;;;15.23;71.03;99090.13;5097773;28;20175;-51
2022/05/28 00:06:58;;;;;;;5.33;2.67;;;;;;;15.19;71.40;99087.03;5097681;28;20186;-51
2022/05/28 00:09:25;;;;;;;6.10;3.13;;;;;;;15.13;71.58;99082.44;5097783;28;20182;-53
2022/05/28 00:11:52;;;;;;;3.33;2.53;;;;;;;15.12;71.70;99081.63;5097664;28;20256;-51
2022/05/28 00:14:19;;;;;;;4.73;3.43;;;;;;;15.11;72.10;99082.59;5097328;28;20198;-53
2022/05/28 00:16:47;;;;;;;4.50;2.80;;;;;;;15.10;72.15;99082.78;5097469;28;20216;-51
2022/05/28 00:19:14;;;;;;;6.03;3.17;;;;;;;15.08;72.22;99082.13;5096632;28;20208;-51
2022/05/28 00:21:43;;;;;;;6.17;3.20;;;;;;;15.07;72.04;99083.94;5095470;28;20194;-52
2022/05/28 00:24:11;;;;;;;6.13;2.80;;;;;;;15.07;72.64;99076.03;5096294;28;20269;-51
2022/05/28 00:26:41;;;;;;;5.37;2.70;;;;;;;15.04;72.67;99079.84;5096481;28;20193;-52
2022/05/28 00:29:08;;;;;;;4.87;2.87;;;;;;;15.03;72.78;99080.84;5095198;28;20218;-51
2022/05/28 00:31:36;;;;;;;5.17;2.73;;;;;;;15.03;72.47;99080.00;5097473;28;20464;-52
2022/05/28 00:34:03;;;;;;;5.17;2.60;;;;;;;15.05;72.26;99081.50;5097214;28;20658;-51
2022/05/28 00:36:30;;;;;;;4.57;3.13;;;;;;;14.95;73.02;99087.91;5096878;28;20349;-51
2022/05/28 00:39:17;;;;;;;4.97;2.87;;;;;;;14.88;73.46;99085.13;5097392;28;20343;-51
2022/05/28 00:41:44;;;;;;;5.53;3.10;;;;;;;14.86;73.59;99087.13;5096871;28;20239;-51
2022/05/28 00:44:12;;;;;;;5.90;3.03;;;;;;;14.81;74.10;99082.38;5097059;28;20191;-51
2022/05/28 00:46:39;;;;;;;3.50;2.77;;;;;;;14.79;73.57;99086.13;5095717;28;20643;-51
2022/05/28 00:49:10;;;;;;;4.07;2.67;;;;;;;14.81;74.12;99090.25;5095567;28;20217;-52
2022/05/28 00:51:41;;;;;;;5.10;3.50;;;;;;;14.77;74.54;99099.47;5096484;28;20177;-51
2022/05/28 00:54:31;;;;;;;6.90;3.90;;;;;;;14.58;75.22;99093.53;5097046;28;20199;-51
2022/05/28 00:57:00;;;;;;;7.67;2.83;;;;;;;14.52;65.28;99099.44;5096708;28;20214;-51
2022/05/28 00:59:27;;;;;;;10.47;2.63;;;;;;;14.38;60.06;99085.13;5096717;28;20193;-50
2022/05/28 01:01:59;;;;;;;10.70;2.50;;;;;;;14.30;59.30;99095.66;5096471;28;20193;-53
2022/05/28 01:04:35;;;;;;;10.50;2.50;;;;;;;14.24;59.22;99098.94;5096516;28;20195;-51
2022/05/28 01:07:12;;;;;;;9.20;2.43;;;;;;;14.06;55.91;99101.69;5096155;28;20203;-51
2022/05/28 01:09:49;;;;;;;5.77;1.87;;;;;;;14.05;54.90;99114.00;5096176;28;20638;-51
2022/05/28 01:12:23;;;;;;;10.23;2.63;;;;;;;13.94;54.28;99101.19;5094839;28;20657;-51
2022/05/28 01:14:58;;;;;;;5.87;1.77;;;;;;;13.84;53.89;99103.94;5096007;28;20191;-53
2022/05/28 01:17:30;;;;;;;10.53;2.90;;;;;;;13.80;53.65;99097.38;5095979;28;20222;-51
2022/05/28 01:20:04;;;;;;;9.13;2.27;;;;;;;13.75;54.28;99100.47;5098762;28;20182;-50
2022/05/28 01:22:45;;;;;;;10.87;3.17;;;;;;;13.70;53.93;99106.22;5095664;28;20238;-52
2022/05/28 01:25:24;;;;;;;7.37;2.20;;;;;;;13.67;54.04;99098.66;5096293;28;20557;-50
2022/05/28 01:28:00;;;;;;;5.77;1.83;;;;;;;13.71;53.70;99099.16;5095581;28;20203;-51
2022/05/28 01:30:28;;;;;;;9.07;1.80;;;;;;;13.65;53.84;99090.13;5096316;28;20189;-51
2022/05/28 01:32:58;;;;;;;12.73;2.23;;;;;;;13.59;53.76;99101.25;5095838;28;20192;-51
2022/05/28 01:35:28;;;;;;;8.80;2.10;;;;;;;13.57;54.00;99095.34;5095606;28;20195;-52
2022/05/28 01:37:58;;;;;;;6.57;2.03;;;;;;;13.52;54.23;99097.63;5095414;28;20275;-51
2022/05/28 01:40:26;;;;;;;8.90;2.10;;;;;;;13.48;55.02;99097.09;5095378;28;20636;-51
2022/05/28 01:43:01;;;;;;;6.43;2.37;;;;;;;13.46;55.67;99090.41;5095716;28;20672;-53
2022/05/28 01:45:31;;;;;;;14.03;2.27;;;;;;;13.46;57.25;99090.41;5095268;28;20645;-52
2022/05/28 01:48:02;;;;;;;11.83;2.83;;;;;;;13.50;55.01;99095.16;5095135;28;20206;-51
2022/05/28 01:50:33;;;;;;;9.73;2.53;;;;;;;13.49;54.52;99087.47;5095591;28;20321;-51
2022/05/28 01:53:03;;;;;;;11.47;2.20;;;;;;;13.42;54.70;99085.47;5095203;28;20227;-53
2022/05/28 01:55:35;;;;;;;6.87;2.00;;;;;;;13.46;54.07;99085.94;5095398;28;20187;-51
2022/05/28 01:58:23;;;;;;;6.77;1.90;;;;;;;13.33;54.06;99080.28;5094954;28;20569;-51
2022/05/28 02:00:50;;;;;;;8.23;2.00;;;;;;;13.36;54.51;99086.06;5095228;28;20187;-51
2022/05/28 02:03:17;;;;;;;11.57;1.93;;;;;;;13.25;53.69;99083.72;5095628;28;20232;-51
2022/05/28 02:05:44;;;;;;;9.70;2.10;;;;;;;13.23;54.17;99078.66;5095503;28;20196;-51
2022/05/28 02:08:11;;;;;;;7.97;1.90;;;;;;;13.21;54.03;99082.38;5095441;28;20215;-51
2022/05/28 02:10:47;;;;;;;8.40;2.10;;;;;;;13.17;53.75;99081.06;5095188;28;20582;-52
2022/05/28 02:13:24;;;;;;;10.17;2.07;;;;;;;13.07;55.21;99087.22;5093911;28;20352;-53
2022/05/28 02:16:00;;;;;;;9.93;2.10;;;;;;;13.07;53.44;99081.19;5094749;28;20210;-51
2022/05/28 02:18:35;;;;;;;6.87;2.20;;;;;;;13.12;53.74;99084.16;5094906;28;20205;-53
2022/05/28 02:21:07;;;;;;;8.07;1.93;;;;;;;13.09;53.21;99080.03;5095353;28;20178;-51
2022/05/28 02:23:43;;;;;;;13.10;2.03;;;;;;;13.02;54.02;99080.81;5095064;28;20232;-53
2022/05/28 02:26:15;;;;;;;11.50;2.10;;;;;;;12.96;53.79;99072.59;5094874;28;20521;-50
2022/05/28 02:28:45;;;;;;;8.60;2.10;;;;;;;13.02;54.04;99075.59;5093603;28;20219;-51
2022/05/28 02:31:16;;;;;;;14.77;2.23;;;;;;;12.96;54.17;99072.59;5095263;28;20194;-51
2022/05/28 02:33:44;;;;;;;9.73;2.87;;;;;;;12.85;55.39;99076.28;5094741;28;20269;-51
2022/05/28 02:36:14;;;;;;;6.87;1.90;;;;;;;12.88;54.39;99082.19;5093364;28;20272;-51
2022/05/28 02:38:41;;;;;;;10.03;2.17;;;;;;;12.79;54.58;99083.94;5094369;28;20212;-51
2022/05/28 02:41:09;;;;;;;8.23;1.97;;;;;;;12.82;55.39;99073.97;5094893;28;20191;-53
2022/05/28 02:43:37;;;;;;;7.70;2.10;;;;;;;12.76;55.35;99071.97;5095154;28;20268;-50
2022/05/28 02:46:06;;;;;;;9.77;2.70;;;;;;;12.77;55.29;99078.03;5094454;28;20186;-50
2022/05/28 02:48:35;;;;;;;10.17;2.27;;;;;;;12.79;55.00;99076.91;5093524;28;20266;-51
2022/05/28 02:51:04;;;;;;;12.63;2.40;;;;;;;12.72;55.33;99081.13;5094538;28;20195;-51
2022/05/28 02:53:31;;;;;;;9.67;2.00;;;;;;;12.80;55.37;99080.34;5094967;28;20188;-53
2022/05/28 02:55:59;;;;;;;9.27;2.33;;;;;;;12.57;55.28;99086.09;5094489;28;20198;-51
2022/05/28 02:58:26;;;;;;;12.97;2.37;;;;;;;12.52;55.66;99083.09;5094620;28;20260;-51
2022/05/28 03:00:54;;;;;;;13.30;2.03;;;;;;;12.39;55.86;99088.75;5094620;28;20179;-51
2022/05/28 03:03:21;;;;;;;10.23;1.90;;;;;;;12.34;56.19;99093.59;5094079;28;20260;-52
2022/05/28 03:05:50;;;;;;;10.40;2.40;;;;;;;12.26;56.73;99096.97;5094595;28;20192;-51
2022/05/28 03:08:19;;;;;;;8.77;2.00;;;;;;;12.21;56.36;99086.94;5094158;28;20199;-53
2022/05/28 03:10:47;;;;;;;14.10;2.37;;;;;;;12.19;55.85;99095.94;5094990;28;20274;-52
2022/05/28 03:13:14;;;;;;;8.00;2.07;;;;;;;12.07;56.66;99097.94;5094713;28;20226;-51
2022/05/28 03:15:42;;;;;;;13.47;1.87;;;;;;;11.88;56.76;99099.69;5094745;28;20187;-51
2022/05/28 03:18:08;;;;;;;12.50;2.63;;;;;;;11.71;58.26;99098.69;5094670;28;20207;-51
2022/05/28 03:20:36;;;;;;;9.07;2.27;;;;;;;11.63;57.73;99094.22;5094532;28;20186;-51
2022/05/28 03:23:04;;;;;;;12.43;2.10;;;;;;;11.51;58.48;99092.75;5094405;28;20191;-51
2022/05/28 03:25:32;;;;;;;6.83;1.90;;;;;;;11.44;60.16;99099.53;5094809;28;20225;-50
2022/05/28 03:27:59;;;;;;;9.23;2.00;;;;;;;11.25;60.64;99106.47;5094281;28;20274;-51
2022/05/28 03:30:26;;;;;;;7.17;1.77;;;;;;;11.19;61.55;99102.63;5094528;28;20240;-53
2022/05/28 03:32:53;;;;;;;10.03;2.80;;;;;;;11.06;62.70;99102.97;5094683;28;20190;-51
2022/05/28 03:35:20;;;;;;;9.27;3.03;;;;;;;10.98;62.72;99096.81;5094399;28;20213;-51
2022/05/28 03:37:47;;;;;;;7.27;1.73;;;;;;;10.87;63.82;99093.41;5094341;28;20658;-52
2022/05/28 03:40:16;;;;;;;8.87;2.13;;;;;;;10.75;63.98;99092.72;5094756;28;20196;-52
2022/05/28 03:42:44;;;;;;;9.27;1.97;;;;;;;10.62;65.11;99100.84;5094811;28;20255;-53
2022/05/28 03:45:11;;;;;;;10.50;2.93;;;;;;;10.51;64.72;99106.22;5094732;28;20620;-50
2022/05/28 03:47:39;;;;;;;7.43;1.97;;;;;;;10.39;65.50;99107.28;5092839;28;20697;-52
2022/05/28 03:50:07;;;;;;;11.97;2.33;;;;;;;10.29;65.61;99105.50;5094210;28;20218;-51
2022/05/28 03:52:34;;;;;;;11.40;3.00;;;;;;;10.20;66.28;99101.09;5095205;28;20183;-52
2022/05/28 03:55:01;;;;;;;8.50;1.73;;;;;;;10.11;66.96;99105.38;5094056;28;20189;-53
2022/05/28 03:57:32;;;;;;;8.80;2.00;;;;;;;10.08;66.89;99102.19;5094029;28;20210;-51
2022/05/28 04:00:00;;;;;;;13.57;2.10;;;;;;;10.03;66.65;99100.84;5094320;28;20593;-52
2022/05/28 04:02:28;;;;;;;10.43;1.83;;;;;;;10.01;67.20;99110.59;5094695;28;20208;-51
2022/05/28 04:04:56;;;;;;;10.70;2.00;;;;;;;10.00;68.18;99113.31;5094196;28;20267;-51
2022/05/28 04:07:23;;;;;;;14.17;2.30;;;;;;;9.94;68.89;99117.28;5096531;28;20201;-51
2022/05/28 04:09:50;;;;;;;11.17;2.03;;;;;;;9.95;68.40;99118.09;5095359;28;20735;-51
2022/05/28 04:12:17;;;;;;;7.20;1.70;;;;;;;9.89;70.57;99122.91;5094799;28;20261;-50
2022/05/28 04:14:46;;;;;;;7.27;1.70;;;;;;;9.83;71.32;99118.22;5096051;28;20197;-53
2022/05/28 04:17:13;;;;;;;3.90;1.67;;;;;;;9.81;71.18;99122.75;5094715;28;20213;-51
2022/05/28 04:19:40;;;;;;;8.27;2.40;;;;;;;9.77;69.94;99116.16;5094672;28;20178;-53
2022/05/28 04:22:08;;;;;;;10.03;1.80;;;;;;;9.72;70.89;99123.53;5098262;28;20186;-52
2022/05/28 04:24:36;;;;;;;7.73;1.90;;;;;;;9.69;70.82;99127.25;5100423;28;20258;-53
2022/05/28 04:27:03;;;;;;;6.80;1.67;;;;;;;9.67;70.88;99126.56;5099754;28;20185;-51
2022/05/28 04:29:30;;;;;;;9.20;2.07;;;;;;;9.66;71.49;99122.31;5098246;28;20198;-51
2022/05/28 04:31:59;;;;;;;5.50;1.60;;;;;;;9.59;70.74;99119.38;5097558;28;20188;-53
2022/05/28 04:34:26;;;;;;;9.00;1.93;;;;;;;9.57;70.23;99117.88;5098098;28;20182;-50
2022/05/28 04:36:54;;;;;;;6.87;2.13;;;;;;;9.55;70.56;99120.59;5097450;28;20204;-51
2022/05/28 04:39:21;;;;;;;8.80;1.90;;;;;;;9.48;71.28;99124.72;5097618;28;20275;-52
2022/05/28 04:41:48;;;;;;;3.90;1.60;;;;;;;9.51;72.35;99124.47;5096000;28;20246;-51
2022/05/28 04:44:15;;;;;;;9.57;1.90;;;;;;;9.47;72.44;99125.69;5097523;28;20263;-50
2022/05/28 04:46:42;;;;;;;13.63;1.83;;;;;;;9.49;72.28;99134.19;5099042;28;20599;-52
2022/05/28 04:49:11;;;;;;;8.27;2.13;;;;;;;9.47;72.41;99130.03;5096222;28;20213;-51
2022/05/28 04:51:39;;;;;;;9.90;1.70;;;;;;;9.44;72.42;99126.75;5097170;28;20276;-51
2022/05/28 04:54:06;;;;;;;5.17;1.90;;;;;;;9.43;72.83;99132.09;5097208;28;20269;-51
2022/05/28 04:56:33;;;;;;;7.00;1.67;;;;;;;9.46;73.60;99139.66;5097394;28;20186;-50
2022/05/28 04:59:01;;;;;;;10.60;2.00;;;;;;;9.48;73.71;99132.53;5098052;28;20287;-51
2022/05/28 05:01:28;;;;;;;7.20;2.03;;;;;;;9.51;72.69;99132.28;5098753;28;20226;-52
2022/05/28 05:03:55;;;;;;;8.00;1.70;;;;;;;9.55;73.02;99132.81;5097888;28;20227;-54
2022/05/28 05:06:24;;;;;;;8.47;2.33;;;;;;;9.65;72.61;99128.47;5097366;28;20212;-51
2022/05/28 05:08:51;;;;;;;6.57;1.67;;;;;;;9.70;72.57;99130.66;5096454;28;20202;-51
2022/05/28 05:11:18;;;;;;;5.27;1.53;;;;;;;9.81;72.28;99134.97;5099125;28;20189;-51
2022/05/28 05:13:46;;;;;;;7.53;1.93;;;;;;;9.89;71.24;99135.13;5099427;28;20253;-51
2022/05/28 05:16:17;;;;;;;7.43;1.70;;;;;;;10.03;70.77;99136.50;5099976;28;20186;-54
2022/05/28 05:18:45;;;;;;;9.93;3.03;;;;;;;10.14;70.20;99139.00;5100344;28;20693;-54
2022/05/28 05:21:12;;;;;;;7.10;1.60;;;;;;;10.28;70.83;99142.19;5097619;28;20285;-51
2022/05/28 05:23:40;;;;;;;11.93;1.93;;;;;;;10.26;69.75;99141.50;5096899;28;20184;-52
2022/05/28 05:26:11;;;;;;;6.20;1.70;;;;;;;10.26;70.26;99139.69;5096428;28;20184;-51
2022/05/28 05:28:39;;;;;;;8.03;1.70;;;;;;;10.32;69.91;99149.59;5097020;28;20203;-51
2022/05/28 05:31:06;;;;;;;7.80;1.63;;;;;;;10.27;70.64;99150.97;5097259;28;20183;-51
2022/05/28 05:33:33;;;;;;;7.00;1.50;;;;;;;10.28;70.29;99155.22;5097473;28;20187;-53
2022/05/28 05:36:01;;;;;;;6.03;1.53;;;;;;;10.32;69.79;99151.38;5096920;28;20253;-53
2022/05/28 05:38:28;;;;;;;7.87;2.10;;;;;;;10.36;69.35;99160.59;5096099;28;20214;-50
2022/05/28 05:40:56;;;;;;;9.23;1.63;;;;;;;10.43;69.63;99160.91;5096261;28;20186;-50
2022/05/28 05:43:24;;;;;;;4.67;1.20;;;;;;;10.45;69.09;99164.19;5096653;28;20186;-53
2022/05/28 05:46:09;;;;;;;5.07;1.10;;;;;;;10.54;67.37;99165.97;5100963;28;20651;-52
2022/05/28 05:48:36;;;;;;;5.33;1.20;;;;;;;10.77;59.72;99176.16;5099500;28;20228;-52
2022/05/28 05:51:08;;;;;;;7.53;1.73;;;;;;;11.15;60.31;99171.00;5098742;28;20198;-51
2022/05/28 05:53:36;;;;;;;6.57;1.10;;;;;;;11.43;57.10;99176.31;5100465;28;20187;-53
2022/05/28 05:56:23;;;;;;;9.43;1.20;;;;;;;11.64;55.87;99171.69;5100531;28;20201;-51
2022/05/28 05:58:50;;;;;;;7.70;1.10;;;;;;;11.63;54.49;99171.81;5100002;28;20220;-53
2022/05/28 06:01:18;;;;;;;7.77;1.20;;;;;;;11.77;55.48;99176.56;5098280;28;20579;-53
2022/05/28 06:03:45;;;;;;;9.23;1.30;;;;;;;11.84;54.44;99168.16;5100691;28;20714;-51
2022/05/28 06:06:16;;;;;;;4.07;1.20;;;;;;;12.08;53.49;99176.31;5099833;28;20250;-52
2022/05/28 06:08:44;;;;;;;6.93;1.30;;;;;;;12.02;56.54;99171.66;5097554;28;20614;-50
2022/05/28 06:11:11;;;;;;;13.57;1.57;;;;;;;12.30;54.26;99173.41;5094669;28;20198;-51
2022/05/28 06:13:39;;;;;;;6.70;1.57;;;;;;;12.61;54.21;99175.66;5095839;28;20226;-51
2022/05/28 06:16:07;;;;;;;6.67;1.30;;;;;;;12.81;55.49;99173.69;5095568;28;20553;-51
2022/05/28 06:18:35;;;;;;;6.70;1.30;;;;;;;12.92;52.34;99170.00;5095174;28;20695;-51
2022/05/28 06:21:03;;;;;;;9.00;1.40;;;;;;;12.87;52.03;99177.50;5095451;28;20184;-51
2022/05/28 06:23:30;;;;;;;7.47;1.27;;;;;;;12.88;55.12;99179.13;5095491;28;20187;-51
2022/05/28 06:25:58;;;;;;;3.93;1.30;;;;;;;12.92;51.39;99175.25;5095747;28;20192;-51
2022/05/28 06:28:25;;;;;;;6.40;1.47;;;;;;;12.97;53.21;99186.94;5095487;28;20224;-52
2022/05/28 06:30:53;;;;;;;7.17;1.17;;;;;;;12.85;51.81;99186.31;5095608;28;20191;-52
2022/05/28 06:33:21;;;;;;;5.50;1.13;;;;;;;13.01;51.06;99189.25;5095160;28;20179;-52
2022/05/28 06:35:48;;;;;;;6.30;1.50;;;;;;;13.03;49.86;99189.91;5095451;28;20179;-51
2022/05/28 06:38:15;;;;;;;7.37;1.17;;;;;;;12.96;50.30;99190.53;5094332;28;20211;-51
2022/05/28 06:40:42;;;;;;;7.50;1.10;;;;;;;13.19;49.63;99194.44;5094458;28;20222;-51
2022/05/28 06:43:10;;;;;;;6.10;1.27;;;;;;;13.16;50.02;99184.25;5094775;28;20673;-52
2022/05/28 06:45:37;;;;;;;6.90;1.03;;;;;;;13.29;50.93;99174.19;5094115;28;20193;-51
2022/05/28 06:48:07;;;;;;;10.63;1.77;;;;;;;13.42;51.64;99185.09;5094470;28;20294;-52
2022/05/28 06:53:20;;;;;;;9.40;2.03;;;;;;;13.61;47.65;99183.25;5095113;28;20531;-51
2022/05/28 06:55:48;;;;;;;6.07;1.30;;;;;;;13.73;49.19;99179.38;5094817;28;20211;-51
2022/05/28 06:58:17;;;;;;;8.07;1.47;;;;;;;13.60;47.64;99184.22;5094600;28;20673;-51
2022/05/28 07:00:44;;;;;;;5.17;1.03;;;;;;;13.94;47.41;99175.47;5094671;28;20249;-53
2022/05/28 07:03:15;;;;;;;4.60;0.97;;;;;;;13.50;46.96;99179.06;5094469;28;20551;-51
2022/05/28 07:05:42;;;;;;;5.77;1.40;;;;;;;13.75;46.80;99179.19;5094199;28;20191;-53
2022/05/28 07:08:10;;;;;;;6.87;1.10;;;;;;;13.68;47.70;99186.03;5093758;28;20689;-51
2022/05/28 07:10:57;;;;;;;5.50;1.37;;;;;;;13.64;46.71;99180.31;5095141;28;20673;-51
2022/05/28 07:13:26;;;;;;;4.73;0.90;;;;;;;13.86;46.12;99191.19;5094388;28;20222;-51
2022/05/28 07:15:54;;;;;;;6.17;1.30;;;;;;;13.47;47.37;99182.00;5094916;28;20582;-51
2022/05/28 07:18:23;;;;;;;6.37;1.27;;;;;;;13.87;47.84;99182.34;5093892;28;20415;-54
2022/05/28 07:20:50;;;;;;;5.77;0.97;;;;;;;14.02;46.76;99177.31;5094710;28;20253;-51
2022/05/28 07:23:21;;;;;;;4.77;1.13;;;;;;;14.05;45.56;99176.16;5094263;28;20196;-54
2022/05/28 07:25:49;;;;;;;4.60;1.13;;;;;;;14.21;45.88;99178.84;5094908;28;20287;-51
2022/05/28 07:28:30;;;;;;;5.63;1.03;;;;;;;14.38;44.79;99171.81;5094072;28;20231;-52
2022/05/28 07:31:00;;;;;;;4.80;1.00;;;;;;;14.53;46.41;99179.88;5093569;28;20188;-53
2022/05/28 07:33:30;;;;;;;4.23;0.90;;;;;;;14.89;44.14;99174.31;5093952;28;20192;-53
2022/05/28 07:35:59;;;;;;;5.50;1.00;;;;;;;14.96;44.68;99169.25;5094175;28;20210;-52
2022/05/28 07:38:29;;;;;;;6.40;1.33;;;;;;;14.90;43.59;99175.97;5092017;28;20789;-52
2022/05/28 07:40:56;;;;;;;4.17;0.87;;;;;;;15.01;43.54;99164.31;5093426;28;20271;-54
2022/05/28 07:43:24;;;;;;;3.30;0.77;;;;;;;15.14;45.36;99161.16;5093273;28;20216;-51
2022/05/28 07:45:51;;;;;;;5.80;1.20;;;;;;;15.04;43.96;99163.13;5093147;28;20188;-54
2022/05/28 07:48:19;;;;;;;4.10;0.90;;;;;;;15.15;43.05;99159.34;5092835;28;20203;-52
2022/05/28 07:50:47;;;;;;;4.50;0.83;;;;;;;15.28;42.16;99161.47;5093648;28;20235;-51
2022/05/28 07:53:14;;;;;;;8.13;1.10;;;;;;;14.84;42.47;99155.59;5091878;28;20201;-52
2022/05/28 07:55:42;;;;;;;6.40;1.10;;;;;;;15.09;42.87;99150.31;5094330;28;20415;-51
2022/05/28 07:58:11;;;;;;;3.50;1.00;;;;;;;15.02;42.01;99147.53;5096959;28;20204;-53
2022/05/28 08:00:40;;;;;;;3.77;1.00;;;;;;;15.20;44.24;99146.53;5097426;28;20192;-52
2022/05/28 08:03:08;;;;;;;7.17;1.10;;;;;;;15.14;44.89;99140.13;5097101;28;20214;-51
2022/05/28 08:05:35;;;;;;;5.90;1.00;;;;;;;15.11;41.66;99134.38;5096992;28;20298;-52
2022/05/28 08:08:05;;;;;;;5.10;1.00;;;;;;;14.97;43.15;99141.97;5096861;28;20211;-53
2022/05/28 08:10:33;;;;;;;3.07;0.77;;;;;;;14.61;43.00;99144.91;5097658;28;20611;-52
2022/05/28 08:13:01;;;;;;;3.87;0.90;;;;;;;14.74;43.96;99147.09;5098371;28;20574;-52
2022/05/28 08:15:28;;;;;;;4.83;1.13;;;;;;;14.87;42.53;99142.13;5097180;28;20243;-52
2022/05/28 08:17:55;;;;;;;5.40;0.93;;;;;;;14.88;42.09;99138.50;5096676;28;20197;-53
2022/05/28 08:23:08;;;;;;;5.57;1.00;;;;;;;14.87;42.58;99136.06;5097646;28;20199;-54
2022/05/28 08:23:11;;;;;;;3.73;1.13;;;;;;;14.88;43.15;99135.06;5097170;28;20230;-51
2022/05/28 08:25:40;;;;;;;4.23;0.80;;;;;;;15.16;42.69;99129.44;5097644;28;20200;-51
2022/05/28 08:28:07;;;;;;;5.10;0.90;;;;;;;15.42;42.02;99134.47;5097109;28;20200;-53
2022/05/28 08:30:35;;;;;;;2.93;1.00;;;;;;;15.33;42.29;99127.59;5097738;28;20227;-51
2022/05/28 08:33:03;;;;;;;2.83;1.00;;;;;;;15.41;41.22;99135.44;5096212;28;20222;-54
2022/05/28 08:35:29;;;;;;;4.43;1.10;;;;;;;15.50;41.66;99136.22;5096017;28;20192;-54
2022/05/28 08:37:57;;;;;;;6.10;1.00;;;;;;;15.65;41.44;99134.53;5094549;28;20220;-54
2022/05/28 08:40:25;;;;;;;3.33;0.90;;;;;;;15.39;41.35;99126.91;5094897;28;20241;-54
2022/05/28 08:42:53;;;;;;;3.67;1.03;;;;;;;15.70;42.34;99122.66;5095218;28;20637;-53
2022/05/28 08:45:21;;;;;;;4.57;0.80;;;;;;;15.83;41.86;99130.81;5095302;28;20279;-54
2022/05/28 08:47:49;;;;;;;4.50;0.90;;;;;;;16.00;42.25;99134.22;5094828;28;20214;-53
2022/05/28 08:50:17;;;;;;;2.90;0.80;;;;;;;16.23;40.82;99130.78;5096249;28;20186;-51
2022/05/28 08:52:49;;;;;;;5.77;1.40;;;;;;;16.39;39.76;99135.13;5096435;28;20189;-54
2022/05/28 08:55:22;;;;;;;7.67;1.10;;;;;;;16.73;38.90;99128.59;5096020;28;20186;-52
2022/05/28 08:57:57;;;;;;;4.17;0.83;;;;;;;16.87;38.28;99126.16;5095308;28;20217;-53
2022/05/28 09:00:34;;;;;;;18.20;6.03;;;;;;;16.91;39.97;99119.53;5095995;28;20191;-52
2022/05/28 09:03:07;;;;;;;5.80;0.93;;;;;;;16.68;41.41;99121.22;5095803;28;20555;-53
2022/05/28 09:05:40;;;;;;;5.37;0.70;;;;;;;16.12;40.81;99118.00;5095787;28;20178;-52
2022/05/28 09:08:09;;;;;;;7.10;1.03;;;;;;;16.34;39.93;99122.47;5095135;28;20206;-51
2022/05/28 09:10:42;;;;;;;5.40;0.70;;;;;;;16.95;38.27;99119.00;5095940;28;20195;-52
2022/05/28 09:13:22;;;;;;;3.47;0.80;;;;;;;17.12;38.56;99121.47;5095485;28;20225;-54
2022/05/28 09:15:50;;;;;;;3.80;0.80;;;;;;;17.39;38.53;99119.22;5095404;28;20645;-52
2022/05/28 09:18:20;;;;;;;7.07;0.97;;;;;;;17.56;37.66;99115.38;5094592;28;20208;-51
2022/05/28 09:20:48;;;;;;;4.97;1.10;;;;;;;17.19;39.85;99118.94;5095051;28;20218;-52
2022/05/28 09:23:15;;;;;;;3.03;0.90;;;;;;;16.99;39.65;99113.38;5095466;28;20543;-52
2022/05/28 09:25:46;;;;;;;6.43;1.07;;;;;;;17.02;38.19;99118.28;5094584;28;20627;-54
2022/05/28 09:28:32;;;;;;;5.27;1.00;;;;;;;17.44;39.32;99113.41;5093337;28;20219;-51
2022/05/28 09:31:08;;;;;;;4.50;1.03;;;;;;;17.85;38.54;99110.22;5094800;28;20199;-51
2022/05/28 09:33:55;;;;;;;5.70;1.00;;;;;;;17.94;39.07;99111.72;5094463;28;20196;-54
2022/05/28 09:36:33;;;;;;;5.87;0.90;;;;;;;18.14;38.90;99109.31;5094476;28;20195;-52
2022/05/28 09:39:12;;;;;;;5.23;1.23;;;;;;;17.87;39.92;99108.19;5094096;28;20606;-51
2022/05/28 09:41:53;;;;;;;4.20;1.00;;;;;;;17.79;38.01;99111.78;5094727;28;20543;-53
2022/05/28 09:44:34;;;;;;;4.20;0.80;;;;;;;17.22;38.81;99103.56;5094784;28;20208;-52
2022/05/28 09:47:08;;;;;;;5.03;0.80;;;;;;;16.86;40.74;99109.53;5094325;28;20275;-52
2022/05/28 09:49:47;;;;;;;2.57;0.87;;;;;;;16.67;40.37;99105.56;5094920;28;20402;-52
2022/05/28 09:52:23;;;;;;;7.60;1.10;;;;;;;16.70;40.54;99114.94;5095036;28;20186;-54
2022/05/28 09:54:49;;;;;;;6.20;1.10;;;;;;;16.59;40.01;99110.91;5095192;28;20209;-51
2022/05/28 09:57:23;;;;;;;3.57;1.00;;;;;;;16.98;42.91;99102.00;5094806;28;20193;-53
2022/05/28 09:59:59;;;;;;;4.73;0.80;;;;;;;17.19;38.31;99108.41;5094648;28;20228;-51
2022/05/28 10:02:29;;;;;;;3.27;0.63;;;;;;;16.58;38.24;99117.19;5094778;28;20193;-53
2022/05/28 10:05:03;;;;;;;3.83;1.13;;;;;;;16.41;37.15;99108.59;5093560;28;20195;-51
2022/05/28 10:07:33;;;;;;;5.30;0.80;;;;;;;16.45;38.54;99113.31;5094450;28;20208;-51
2022/05/28 10:10:11;;;;;;;4.50;1.10;;;;;;;16.54;38.88;99103.56;5093675;28;20204;-52
2022/05/28 10:12:39;;;;;;;4.33;0.80;;;;;;;16.94;37.12;99100.72;5095019;28;20186;-51
2022/05/28 10:15:11;;;;;;;6.10;1.13;;;;;;;16.91;38.23;99099.25;5095599;28;20187;-52
2022/05/28 10:17:40;;;;;;;5.07;1.00;;;;;;;16.88;37.94;99098.78;5095407;28;20758;-53
2022/05/28 10:20:16;;;;;;;4.37;0.90;;;;;;;17.21;38.60;99098.47;5093774;28;20217;-53
2022/05/28 10:22:44;;;;;;;2.53;0.60;;;;;;;17.50;38.94;99094.16;5094417;28;20197;-54
2022/05/28 10:25:34;;;;;;;3.33;0.77;;;;;;;18.32;37.06;99086.91;5094803;28;20202;-51
2022/05/28 10:28:01;;;;;;;4.23;1.00;;;;;;;18.37;37.37;99081.88;5093831;28;20733;-53
2022/05/28 10:30:35;;;;;;;3.60;0.93;;;;;;;18.46;36.00;99077.28;5093655;28;20644;-51
2022/05/28 10:33:06;;;;;;;3.83;0.87;;;;;;;18.30;36.77;99086.28;5093623;28;20279;-53
2022/05/28 10:35:33;;;;;;;3.23;1.00;;;;;;;18.00;36.80;99075.88;5093547;28;20273;-51
2022/05/28 10:38:09;;;;;;;3.57;0.83;;;;;;;17.87;36.16;99078.34;5092887;28;20570;-52
2022/05/28 10:40:48;;;;;;;5.37;1.10;;;;;;;17.96;36.57;99077.22;5093600;28;20304;-52
2022/05/28 10:43:24;;;;;;;3.10;1.10;;;;;;;18.67;34.15;99073.78;5093440;28;20535;-52
2022/05/28 10:45:59;;;;;;;4.60;1.20;;;;;;;19.01;35.01;99066.09;5093153;28;20179;-52
2022/05/28 10:48:34;;;;;;;2.77;0.83;;;;;;;19.63;35.75;99066.13;5091302;28;20242;-54
2022/05/28 10:51:11;;;;;;;1.87;0.60;;;;;;;19.85;34.54;99066.00;5092970;28;20192;-51
2022/05/28 10:53:53;;;;;;;5.27;1.00;;;;;;;19.76;35.59;99068.03;5093088;28;20188;-53
2022/05/28 10:56:35;;;;;;;2.87;0.80;;;;;;;20.20;33.31;99065.88;5092970;28;20316;-53
2022/05/28 10:59:16;;;;;;;7.13;1.17;;;;;;;19.90;32.68;99055.63;5092290;28;20364;-52
2022/05/28 11:01:54;;;;;;;2.70;0.90;;;;;;;19.56;34.46;99060.03;5092544;28;20211;-53
2022/05/28 11:04:49;;;;;;;3.73;0.87;;;;;;;19.30;33.37;99061.56;5092828;28;20165;-52
2022/05/28 11:07:43;;;;;;;3.23;0.70;;;;;;;18.79;34.41;99049.47;5092651;28;20655;-52
2022/05/28 11:10:32;;;;;;;2.37;0.73;;;;;;;18.69;35.02;99055.91;5091917;28;20191;-52
2022/05/28 11:13:13;;;;;;;3.93;0.80;;;;;;;18.98;34.99;99047.97;5092852;28;20240;-54
2022/05/28 11:15:58;;;;;;;1.90;0.70;;;;;;;19.18;35.43;99048.06;5091621;28;20654;-52
2022/05/28 11:18:42;;;;;;;3.70;1.00;;;;;;;19.05;33.76;99037.44;5092536;28;20201;-52
2022/05/28 11:21:25;;;;;;;4.40;0.90;;;;;;;18.44;34.07;99037.81;5093404;28;20194;-51
2022/05/28 11:24:13;;;;;;;2.67;0.73;;;;;;;18.86;35.18;99029.16;5093169;28;20185;-52
2022/05/28 11:26:47;;;;;;;3.50;0.87;;;;;;;18.51;34.73;99029.13;5093088;28;20184;-54
2022/05/28 11:29:30;;;;;;;4.87;1.17;;;;;;;18.62;35.45;99022.47;5092721;28;20650;-52
2022/05/28 11:32:01;;;;;;;2.57;0.80;;;;;;;18.68;35.41;99011.13;5097680;28;20183;-52
2022/05/28 11:34:40;;;;;;;4.13;0.93;;;;;;;18.84;36.19;99016.09;5097350;28;20202;-52
2022/05/28 11:37:13;;;;;;;3.97;1.00;;;;;;;18.91;34.17;99010.88;5096828;28;20304;-52
2022/05/28 11:39:46;;;;;;;6.67;1.47;;;;;;;19.02;34.99;99007.72;5096616;28;20214;-52
2022/05/28 11:42:24;;;;;;;4.53;1.03;;;;;;;18.69;36.92;99007.47;5096764;28;20283;-51
2022/05/28 11:44:56;;;;;;;3.90;1.10;;;;;;;19.16;34.06;98997.16;5095459;28;20199;-52
2022/05/28 11:47:35;;;;;;;4.37;0.97;;;;;;;19.39;34.57;98996.84;5095277;28;20313;-51
2022/05/28 11:53:19;;;;;;;4.17;0.87;;;;;;;18.86;33.91;98987.63;5053965;28;20198;-53
2022/05/28 11:55:50;;;;;;;3.37;0.70;;;;;;;18.04;33.88;98986.50;5090414;28;20248;-51
2022/05/28 11:58:20;;;;;;;5.47;1.20;;;;;;;18.00;34.44;98989.53;5097434;28;20201;-53